sensor_id;sensor_type;location;lat;lon;timestamp;P1;durP1;ratioP1;P2;durP2;ratioP2
15624;SDS011;7912;51.376;6.126;2022-10-17T00:01:18;4.70;;;4.13;;
15624;SDS011;7912;51.376;6.126;2022-10-17T00:03:47;4.80;;;4.40;;
15624;SDS011;7912;51.376;6.126;2022-10-17T00:06:14;5.13;;;4.63;;
15624;SDS011;7912;51.376;6.126;2022-10-17T00:08:42;5.17;;;4.23;;
15624;SDS011;7912;51.376;6.126;2022-10-17T00:11:17;4.93;;;4.53;;
15624;SDS011;7912;51.376;6.126;2022-10-17T00:13:48;4.70;;;4.30;;
15624;SDS011;7912;51.376;6.126;2022-10-17T00:16:23;5.60;;;4.20;;
15624;SDS011;7912;51.376;6.126;2022-10-17T00:18:54;4.57;;;4.17;;
15624;SDS011;7912;51.376;6.126;2022-10-17T00:21:22;4.93;;;4.20;;
15624;SDS011;7912;51.376;6.126;2022-10-17T00:23:51;4.73;;;4.33;;
15624;SDS011;7912;51.376;6.126;2022-10-17T00:26:19;5.30;;;4.80;;
15624;SDS011;7912;51.376;6.126;2022-10-17T00:28:48;5.00;;;4.50;;
15624;SDS011;7912;51.376;6.126;2022-10-17T00:31:19;4.87;;;4.37;;
15624;SDS011;7912;51.376;6.126;2022-10-17T00:33:48;5.40;;;4.90;;
15624;SDS011;7912;51.376;6.126;2022-10-17T00:36:18;5.47;;;4.97;;
15624;SDS011;7912;51.376;6.126;2022-10-17T00:38:52;6.37;;;4.90;;
15624;SDS011;7912;51.376;6.126;2022-10-17T00:41:24;4.90;;;4.43;;
15624;SDS011;7912;51.376;6.126;2022-10-17T00:43:59;5.90;;;5.30;;
15624;SDS011;7912;51.376;6.126;2022-10-17T00:46:33;5.43;;;4.90;;
15624;SDS011;7912;51.376;6.126;2022-10-17T00:49:07;4.97;;;4.53;;
15624;SDS011;7912;51.376;6.126;2022-10-17T00:51:41;5.93;;;4.93;;
15624;SDS011;7912;51.376;6.126;2022-10-17T00:54:17;5.57;;;5.07;;
15624;SDS011;7912;51.376;6.126;2022-10-17T00:56:52;5.47;;;4.97;;
15624;SDS011;7912;51.376;6.126;2022-10-17T00:59:20;5.60;;;5.10;;
15624;SDS011;7912;51.376;6.126;2022-10-17T01:01:59;5.40;;;4.90;;
15624;SDS011;7912;51.376;6.126;2022-10-17T01:04:36;6.40;;;5.20;;
15624;SDS011;7912;51.376;6.126;2022-10-17T01:07:08;5.47;;;4.87;;
15624;SDS011;7912;51.376;6.126;2022-10-17T01:09:36;7.00;;;5.07;;
15624;SDS011;7912;51.376;6.126;2022-10-17T01:12:22;5.73;;;5.20;;
15624;SDS011;7912;51.376;6.126;2022-10-17T01:28:40;6.73;;;5.27;;
15624;SDS011;7912;51.376;6.126;2022-10-17T01:31:35;5.87;;;5.30;;
15624;SDS011;7912;51.376;6.126;2022-10-17T01:34:19;5.60;;;4.87;;
15624;SDS011;7912;51.376;6.126;2022-10-17T01:37:01;5.50;;;5.00;;
15624;SDS011;7912;51.376;6.126;2022-10-17T01:39:45;6.10;;;5.00;;
15624;SDS011;7912;51.376;6.126;2022-10-17T01:42:24;5.17;;;4.77;;
15624;SDS011;7912;51.376;6.126;2022-10-17T01:47:49;6.60;;;4.90;;
15624;SDS011;7912;51.376;6.126;2022-10-17T01:50:22;6.20;;;4.97;;
15624;SDS011;7912;51.376;6.126;2022-10-17T01:52:58;6.10;;;5.27;;
15624;SDS011;7912;51.376;6.126;2022-10-17T01:55:35;6.97;;;5.03;;
15624;SDS011;7912;51.376;6.126;2022-10-17T01:58:08;6.87;;;5.30;;
15624;SDS011;7912;51.376;6.126;2022-10-17T02:00:42;5.70;;;5.20;;
15624;SDS011;7912;51.376;6.126;2022-10-17T02:03:13;6.07;;;5.57;;
15624;SDS011;7912;51.376;6.126;2022-10-17T02:05:46;6.53;;;5.20;;
15624;SDS011;7912;51.376;6.126;2022-10-17T02:08:26;5.90;;;5.40;;
15624;SDS011;7912;51.376;6.126;2022-10-17T02:11:08;5.90;;;5.40;;
15624;SDS011;7912;51.376;6.126;2022-10-17T02:16:38;6.00;;;5.40;;
15624;SDS011;7912;51.376;6.126;2022-10-17T02:22:26;6.13;;;5.30;;
15624;SDS011;7912;51.376;6.126;2022-10-17T02:33:53;5.87;;;5.27;;
15624;SDS011;7912;51.376;6.126;2022-10-17T02:36:39;7.20;;;5.37;;
15624;SDS011;7912;51.376;6.126;2022-10-17T02:39:14;6.27;;;5.67;;
15624;SDS011;7912;51.376;6.126;2022-10-17T02:41:43;7.97;;;5.30;;
15624;SDS011;7912;51.376;6.126;2022-10-17T02:44:12;5.80;;;5.30;;
15624;SDS011;7912;51.376;6.126;2022-10-17T02:46:41;5.90;;;5.30;;
15624;SDS011;7912;51.376;6.126;2022-10-17T02:49:28;5.83;;;5.33;;
15624;SDS011;7912;51.376;6.126;2022-10-17T02:55:07;6.17;;;5.47;;
15624;SDS011;7912;51.376;6.126;2022-10-17T03:00:24;6.17;;;5.53;;
15624;SDS011;7912;51.376;6.126;2022-10-17T03:02:54;6.33;;;5.73;;
15624;SDS011;7912;51.376;6.126;2022-10-17T03:05:25;5.60;;;5.10;;
15624;SDS011;7912;51.376;6.126;2022-10-17T03:07:55;5.47;;;5.07;;
15624;SDS011;7912;51.376;6.126;2022-10-17T03:10:22;5.70;;;5.20;;
15624;SDS011;7912;51.376;6.126;2022-10-17T03:12:50;5.50;;;5.00;;
15624;SDS011;7912;51.376;6.126;2022-10-17T03:15:17;5.50;;;4.90;;
15624;SDS011;7912;51.376;6.126;2022-10-17T03:17:45;6.10;;;5.50;;
15624;SDS011;7912;51.376;6.126;2022-10-17T03:20:12;5.33;;;4.80;;
15624;SDS011;7912;51.376;6.126;2022-10-17T03:22:39;8.27;;;5.50;;
15624;SDS011;7912;51.376;6.126;2022-10-17T03:25:06;6.00;;;5.40;;
15624;SDS011;7912;51.376;6.126;2022-10-17T03:27:34;5.40;;;4.90;;
15624;SDS011;7912;51.376;6.126;2022-10-17T03:30:01;6.43;;;5.50;;
15624;SDS011;7912;51.376;6.126;2022-10-17T03:32:31;5.87;;;5.30;;
15624;SDS011;7912;51.376;6.126;2022-10-17T03:34:59;5.60;;;5.10;;
15624;SDS011;7912;51.376;6.126;2022-10-17T03:37:27;5.53;;;5.03;;
15624;SDS011;7912;51.376;6.126;2022-10-17T03:39:55;5.53;;;5.03;;
15624;SDS011;7912;51.376;6.126;2022-10-17T03:42:22;6.17;;;5.57;;
15624;SDS011;7912;51.376;6.126;2022-10-17T03:44:50;5.43;;;5.03;;
15624;SDS011;7912;51.376;6.126;2022-10-17T03:47:17;6.27;;;5.60;;
15624;SDS011;7912;51.376;6.126;2022-10-17T03:49:44;6.07;;;5.57;;
15624;SDS011;7912;51.376;6.126;2022-10-17T03:52:12;6.10;;;5.50;;
15624;SDS011;7912;51.376;6.126;2022-10-17T03:54:40;5.53;;;4.93;;
15624;SDS011;7912;51.376;6.126;2022-10-17T03:57:07;7.50;;;4.90;;
15624;SDS011;7912;51.376;6.126;2022-10-17T03:59:35;5.53;;;5.03;;
15624;SDS011;7912;51.376;6.126;2022-10-17T04:02:02;9.40;;;5.27;;
15624;SDS011;7912;51.376;6.126;2022-10-17T04:04:30;6.83;;;5.37;;
15624;SDS011;7912;51.376;6.126;2022-10-17T04:06:57;6.50;;;5.23;;
15624;SDS011;7912;51.376;6.126;2022-10-17T04:09:25;5.80;;;5.20;;
15624;SDS011;7912;51.376;6.126;2022-10-17T04:11:52;8.23;;;5.60;;
15624;SDS011;7912;51.376;6.126;2022-10-17T04:14:20;5.50;;;5.00;;
15624;SDS011;7912;51.376;6.126;2022-10-17T04:16:47;5.97;;;5.07;;
15624;SDS011;7912;51.376;6.126;2022-10-17T04:25:07;6.13;;;5.40;;
15624;SDS011;7912;51.376;6.126;2022-10-17T04:27:35;6.17;;;5.57;;
15624;SDS011;7912;51.376;6.126;2022-10-17T04:30:03;7.70;;;5.93;;
15624;SDS011;7912;51.376;6.126;2022-10-17T04:32:30;5.97;;;5.20;;
15624;SDS011;7912;51.376;6.126;2022-10-17T04:35:02;5.83;;;5.33;;
15624;SDS011;7912;51.376;6.126;2022-10-17T04:37:30;5.70;;;5.20;;
15624;SDS011;7912;51.376;6.126;2022-10-17T04:42:46;8.17;;;5.33;;
15624;SDS011;7912;51.376;6.126;2022-10-17T04:45:13;6.17;;;5.43;;
15624;SDS011;7912;51.376;6.126;2022-10-17T04:47:41;6.30;;;5.70;;
15624;SDS011;7912;51.376;6.126;2022-10-17T04:50:08;5.60;;;5.07;;
15624;SDS011;7912;51.376;6.126;2022-10-17T04:52:35;6.00;;;5.40;;
15624;SDS011;7912;51.376;6.126;2022-10-17T04:55:06;6.27;;;5.23;;
15624;SDS011;7912;51.376;6.126;2022-10-17T04:57:34;6.33;;;5.67;;
15624;SDS011;7912;51.376;6.126;2022-10-17T05:00:02;6.37;;;5.47;;
15624;SDS011;7912;51.376;6.126;2022-10-17T05:02:30;5.77;;;5.27;;
15624;SDS011;7912;51.376;6.126;2022-10-17T05:04:57;7.00;;;5.47;;
15624;SDS011;7912;51.376;6.126;2022-10-17T05:07:25;6.20;;;5.17;;
15624;SDS011;7912;51.376;6.126;2022-10-17T05:09:53;5.90;;;5.30;;
15624;SDS011;7912;51.376;6.126;2022-10-17T05:12:20;6.27;;;5.67;;
15624;SDS011;7912;51.376;6.126;2022-10-17T05:14:47;6.90;;;5.33;;
15624;SDS011;7912;51.376;6.126;2022-10-17T05:17:15;6.80;;;5.30;;
15624;SDS011;7912;51.376;6.126;2022-10-17T05:19:42;5.47;;;5.07;;
15624;SDS011;7912;51.376;6.126;2022-10-17T05:22:09;7.47;;;5.07;;
15624;SDS011;7912;51.376;6.126;2022-10-17T05:24:37;5.97;;;5.37;;
15624;SDS011;7912;51.376;6.126;2022-10-17T05:27:04;6.30;;;5.50;;
15624;SDS011;7912;51.376;6.126;2022-10-17T05:29:33;6.20;;;5.03;;
15624;SDS011;7912;51.376;6.126;2022-10-17T05:32:01;6.30;;;5.57;;
15624;SDS011;7912;51.376;6.126;2022-10-17T05:34:28;6.67;;;6.03;;
15624;SDS011;7912;51.376;6.126;2022-10-17T05:36:56;6.00;;;5.40;;
15624;SDS011;7912;51.376;6.126;2022-10-17T05:39:23;7.17;;;5.97;;
15624;SDS011;7912;51.376;6.126;2022-10-17T05:41:51;7.40;;;6.23;;
15624;SDS011;7912;51.376;6.126;2022-10-17T05:44:18;5.87;;;5.37;;
15624;SDS011;7912;51.376;6.126;2022-10-17T05:46:47;5.50;;;5.00;;
15624;SDS011;7912;51.376;6.126;2022-10-17T05:49:15;6.47;;;5.87;;
15624;SDS011;7912;51.376;6.126;2022-10-17T05:52:03;6.10;;;5.47;;
15624;SDS011;7912;51.376;6.126;2022-10-17T05:54:31;7.07;;;5.10;;
15624;SDS011;7912;51.376;6.126;2022-10-17T05:56:59;6.27;;;5.47;;
15624;SDS011;7912;51.376;6.126;2022-10-17T05:59:27;5.93;;;5.43;;
15624;SDS011;7912;51.376;6.126;2022-10-17T06:01:55;5.97;;;5.37;;
15624;SDS011;7912;51.376;6.126;2022-10-17T06:04:23;7.70;;;5.10;;
15624;SDS011;7912;51.376;6.126;2022-10-17T06:06:53;5.90;;;5.30;;
15624;SDS011;7912;51.376;6.126;2022-10-17T06:09:22;6.10;;;5.50;;
15624;SDS011;7912;51.376;6.126;2022-10-17T06:11:51;6.37;;;5.60;;
15624;SDS011;7912;51.376;6.126;2022-10-17T06:14:19;5.70;;;5.10;;
15624;SDS011;7912;51.376;6.126;2022-10-17T06:16:47;6.77;;;5.73;;
15624;SDS011;7912;51.376;6.126;2022-10-17T06:19:15;6.97;;;6.10;;
15624;SDS011;7912;51.376;6.126;2022-10-17T06:21:42;6.67;;;5.80;;
15624;SDS011;7912;51.376;6.126;2022-10-17T06:24:10;6.40;;;5.80;;
15624;SDS011;7912;51.376;6.126;2022-10-17T06:26:38;7.50;;;5.77;;
15624;SDS011;7912;51.376;6.126;2022-10-17T06:29:07;6.27;;;5.50;;
15624;SDS011;7912;51.376;6.126;2022-10-17T06:34:21;6.80;;;6.07;;
15624;SDS011;7912;51.376;6.126;2022-10-17T06:36:49;8.33;;;5.97;;
15624;SDS011;7912;51.376;6.126;2022-10-17T06:39:16;6.90;;;5.53;;
15624;SDS011;7912;51.376;6.126;2022-10-17T06:41:44;7.30;;;5.87;;
15624;SDS011;7912;51.376;6.126;2022-10-17T06:44:12;6.17;;;5.40;;
15624;SDS011;7912;51.376;6.126;2022-10-17T06:46:39;6.73;;;5.83;;
15624;SDS011;7912;51.376;6.126;2022-10-17T06:49:08;10.30;;;5.77;;
15624;SDS011;7912;51.376;6.126;2022-10-17T06:51:36;7.03;;;5.73;;
15624;SDS011;7912;51.376;6.126;2022-10-17T06:54:04;6.47;;;5.87;;
15624;SDS011;7912;51.376;6.126;2022-10-17T06:56:31;7.77;;;5.90;;
15624;SDS011;7912;51.376;6.126;2022-10-17T06:58:58;5.67;;;5.17;;
15624;SDS011;7912;51.376;6.126;2022-10-17T07:01:26;5.87;;;5.37;;
15624;SDS011;7912;51.376;6.126;2022-10-17T07:03:55;8.80;;;5.57;;
15624;SDS011;7912;51.376;6.126;2022-10-17T07:06:22;7.97;;;5.57;;
15624;SDS011;7912;51.376;6.126;2022-10-17T07:08:50;6.37;;;5.67;;
15624;SDS011;7912;51.376;6.126;2022-10-17T07:11:23;5.83;;;5.13;;
15624;SDS011;7912;51.376;6.126;2022-10-17T07:13:51;7.40;;;6.23;;
15624;SDS011;7912;51.376;6.126;2022-10-17T07:16:18;5.77;;;5.13;;
15624;SDS011;7912;51.376;6.126;2022-10-17T07:18:49;6.70;;;5.17;;
15624;SDS011;7912;51.376;6.126;2022-10-17T07:21:18;5.60;;;5.10;;
15624;SDS011;7912;51.376;6.126;2022-10-17T07:23:46;5.83;;;5.13;;
15624;SDS011;7912;51.376;6.126;2022-10-17T07:26:14;6.40;;;5.47;;
15624;SDS011;7912;51.376;6.126;2022-10-17T07:28:43;6.43;;;4.73;;
15624;SDS011;7912;51.376;6.126;2022-10-17T07:31:16;6.70;;;4.97;;
15624;SDS011;7912;51.376;6.126;2022-10-17T07:33:46;7.17;;;5.70;;
15624;SDS011;7912;51.376;6.126;2022-10-17T07:36:14;6.03;;;5.50;;
15624;SDS011;7912;51.376;6.126;2022-10-17T07:38:43;5.93;;;5.40;;
15624;SDS011;7912;51.376;6.126;2022-10-17T07:41:10;7.37;;;5.83;;
15624;SDS011;7912;51.376;6.126;2022-10-17T07:43:46;6.60;;;5.40;;
15624;SDS011;7912;51.376;6.126;2022-10-17T07:46:13;9.17;;;5.97;;
15624;SDS011;7912;51.376;6.126;2022-10-17T07:48:41;6.77;;;5.43;;
15624;SDS011;7912;51.376;6.126;2022-10-17T07:51:09;7.57;;;6.00;;
15624;SDS011;7912;51.376;6.126;2022-10-17T07:53:37;8.90;;;5.43;;
15624;SDS011;7912;51.376;6.126;2022-10-17T07:56:11;5.50;;;4.90;;
15624;SDS011;7912;51.376;6.126;2022-10-17T07:58:39;5.60;;;4.87;;
15624;SDS011;7912;51.376;6.126;2022-10-17T08:01:07;5.80;;;4.97;;
15624;SDS011;7912;51.376;6.126;2022-10-17T08:03:42;5.23;;;4.83;;
15624;SDS011;7912;51.376;6.126;2022-10-17T08:06:11;5.97;;;5.20;;
15624;SDS011;7912;51.376;6.126;2022-10-17T08:08:39;6.57;;;5.37;;
15624;SDS011;7912;51.376;6.126;2022-10-17T08:11:08;6.07;;;4.63;;
15624;SDS011;7912;51.376;6.126;2022-10-17T08:13:39;5.27;;;4.77;;
15624;SDS011;7912;51.376;6.126;2022-10-17T08:16:09;10.40;;;4.77;;
15624;SDS011;7912;51.376;6.126;2022-10-17T08:18:39;5.83;;;4.77;;
15624;SDS011;7912;51.376;6.126;2022-10-17T08:21:10;5.03;;;4.63;;
15624;SDS011;7912;51.376;6.126;2022-10-17T08:23:38;5.63;;;4.80;;
15624;SDS011;7912;51.376;6.126;2022-10-17T08:26:06;5.53;;;4.70;;
15624;SDS011;7912;51.376;6.126;2022-10-17T08:28:36;5.13;;;4.63;;
15624;SDS011;7912;51.376;6.126;2022-10-17T08:31:10;5.63;;;5.03;;
15624;SDS011;7912;51.376;6.126;2022-10-17T08:33:41;5.40;;;4.33;;
15624;SDS011;7912;51.376;6.126;2022-10-17T08:36:09;5.97;;;4.60;;
15624;SDS011;7912;51.376;6.126;2022-10-17T08:38:41;5.30;;;4.37;;
15624;SDS011;7912;51.376;6.126;2022-10-17T08:41:13;6.00;;;4.33;;
15624;SDS011;7912;51.376;6.126;2022-10-17T08:46:56;5.07;;;4.00;;
15624;SDS011;7912;51.376;6.126;2022-10-17T08:49:37;5.60;;;4.23;;
15624;SDS011;7912;51.376;6.126;2022-10-17T08:52:42;4.40;;;3.93;;
15624;SDS011;7912;51.376;6.126;2022-10-17T08:55:38;4.73;;;3.73;;
15624;SDS011;7912;51.376;6.126;2022-10-17T08:58:21;5.87;;;4.23;;
15624;SDS011;7912;51.376;6.126;2022-10-17T09:06:28;4.07;;;3.77;;
15624;SDS011;7912;51.376;6.126;2022-10-17T09:15:36;4.87;;;4.00;;
15624;SDS011;7912;51.376;6.126;2022-10-17T09:18:40;4.07;;;3.67;;
15624;SDS011;7912;51.376;6.126;2022-10-17T09:24:36;3.93;;;3.50;;
15624;SDS011;7912;51.376;6.126;2022-10-17T09:27:18;4.07;;;3.67;;
15624;SDS011;7912;51.376;6.126;2022-10-17T09:33:20;4.27;;;3.87;;
15624;SDS011;7912;51.376;6.126;2022-10-17T09:36:22;6.20;;;4.07;;
15624;SDS011;7912;51.376;6.126;2022-10-17T09:39:02;3.97;;;3.10;;
15624;SDS011;7912;51.376;6.126;2022-10-17T09:41:43;4.70;;;3.77;;
15624;SDS011;7912;51.376;6.126;2022-10-17T09:44:24;7.53;;;3.63;;
15624;SDS011;7912;51.376;6.126;2022-10-17T09:49:44;5.53;;;3.50;;
15624;SDS011;7912;51.376;6.126;2022-10-17T09:52:15;4.37;;;3.70;;
15624;SDS011;7912;51.376;6.126;2022-10-17T09:55:02;5.30;;;3.87;;
15624;SDS011;7912;51.376;6.126;2022-10-17T09:57:58;4.17;;;3.30;;
15624;SDS011;7912;51.376;6.126;2022-10-17T10:00:32;4.67;;;3.53;;
15624;SDS011;7912;51.376;6.126;2022-10-17T10:03:07;3.80;;;3.47;;
15624;SDS011;7912;51.376;6.126;2022-10-17T10:05:41;4.93;;;3.50;;
15624;SDS011;7912;51.376;6.126;2022-10-17T10:08:52;4.97;;;3.80;;
15624;SDS011;7912;51.376;6.126;2022-10-17T10:11:44;3.93;;;3.53;;
15624;SDS011;7912;51.376;6.126;2022-10-17T10:17:02;5.77;;;4.20;;
15624;SDS011;7912;51.376;6.126;2022-10-17T10:19:33;5.63;;;3.90;;
15624;SDS011;7912;51.376;6.126;2022-10-17T10:22:04;4.67;;;4.20;;
15624;SDS011;7912;51.376;6.126;2022-10-17T10:24:41;6.73;;;4.03;;
15624;SDS011;7912;51.376;6.126;2022-10-17T10:27:13;4.97;;;4.23;;
15624;SDS011;7912;51.376;6.126;2022-10-17T10:29:50;5.23;;;3.97;;
15624;SDS011;7912;51.376;6.126;2022-10-17T10:40:17;7.20;;;4.87;;
15624;SDS011;7912;51.376;6.126;2022-10-17T10:43:18;5.27;;;4.40;;
15624;SDS011;7912;51.376;6.126;2022-10-17T10:46:14;7.43;;;4.37;;
15624;SDS011;7912;51.376;6.126;2022-10-17T10:51:31;5.13;;;4.10;;
15624;SDS011;7912;51.376;6.126;2022-10-17T10:56:45;6.83;;;4.83;;
15624;SDS011;7912;51.376;6.126;2022-10-17T10:59:41;5.43;;;4.03;;
15624;SDS011;7912;51.376;6.126;2022-10-17T11:05:47;7.90;;;5.10;;
15624;SDS011;7912;51.376;6.126;2022-10-17T11:08:40;6.77;;;5.73;;
15624;SDS011;7912;51.376;6.126;2022-10-17T11:14:13;7.17;;;4.70;;
15624;SDS011;7912;51.376;6.126;2022-10-17T11:17:03;5.60;;;5.07;;
15624;SDS011;7912;51.376;6.126;2022-10-17T11:22:47;6.63;;;5.33;;
15624;SDS011;7912;51.376;6.126;2022-10-17T11:25:36;6.73;;;5.30;;
15624;SDS011;7912;51.376;6.126;2022-10-17T11:28:16;7.97;;;5.20;;
15624;SDS011;7912;51.376;6.126;2022-10-17T11:33:42;5.67;;;5.17;;
15624;SDS011;7912;51.376;6.126;2022-10-17T11:36:49;7.40;;;4.80;;
15624;SDS011;7912;51.376;6.126;2022-10-17T11:39:28;6.10;;;5.20;;
15624;SDS011;7912;51.376;6.126;2022-10-17T11:42:09;6.97;;;4.90;;
15624;SDS011;7912;51.376;6.126;2022-10-17T11:44:44;8.77;;;5.07;;
15624;SDS011;7912;51.376;6.126;2022-10-17T11:53:14;5.70;;;4.97;;
15624;SDS011;7912;51.376;6.126;2022-10-17T11:55:51;6.17;;;4.60;;
15624;SDS011;7912;51.376;6.126;2022-10-17T11:58:27;6.63;;;4.90;;
15624;SDS011;7912;51.376;6.126;2022-10-17T12:01:08;5.67;;;5.10;;
15624;SDS011;7912;51.376;6.126;2022-10-17T12:12:47;5.43;;;4.73;;
15624;SDS011;7912;51.376;6.126;2022-10-17T12:17:45;5.53;;;4.97;;
15624;SDS011;7912;51.376;6.126;2022-10-17T12:22:57;6.50;;;4.73;;
15624;SDS011;7912;51.376;6.126;2022-10-17T12:28:31;6.80;;;4.50;;
15624;SDS011;7912;51.376;6.126;2022-10-17T12:33:48;6.33;;;4.50;;
15624;SDS011;7912;51.376;6.126;2022-10-17T12:52:23;5.70;;;4.57;;
15624;SDS011;7912;51.376;6.126;2022-10-17T12:55:13;5.17;;;4.67;;
15624;SDS011;7912;51.376;6.126;2022-10-17T13:03:41;5.50;;;4.70;;
15624;SDS011;7912;51.376;6.126;2022-10-17T13:06:19;6.23;;;4.30;;
15624;SDS011;7912;51.376;6.126;2022-10-17T13:09:01;6.40;;;4.63;;
15624;SDS011;7912;51.376;6.126;2022-10-17T13:11:50;4.90;;;4.40;;
15624;SDS011;7912;51.376;6.126;2022-10-17T13:14:20;9.10;;;4.83;;
15624;SDS011;7912;51.376;6.126;2022-10-17T13:19:20;5.37;;;4.73;;
15624;SDS011;7912;51.376;6.126;2022-10-17T13:22:00;6.40;;;4.43;;
15624;SDS011;7912;51.376;6.126;2022-10-17T13:24:36;7.37;;;4.53;;
15624;SDS011;7912;51.376;6.126;2022-10-17T13:27:22;5.60;;;4.30;;
15624;SDS011;7912;51.376;6.126;2022-10-17T13:29:59;6.73;;;4.67;;
15624;SDS011;7912;51.376;6.126;2022-10-17T13:32:45;6.03;;;4.40;;
15624;SDS011;7912;51.376;6.126;2022-10-17T13:35:14;5.97;;;4.53;;
15624;SDS011;7912;51.376;6.126;2022-10-17T13:38:10;5.83;;;4.20;;
15624;SDS011;7912;51.376;6.126;2022-10-17T13:40:40;7.43;;;4.40;;
15624;SDS011;7912;51.376;6.126;2022-10-17T13:43:16;5.57;;;4.33;;
15624;SDS011;7912;51.376;6.126;2022-10-17T13:45:53;5.53;;;4.20;;
15624;SDS011;7912;51.376;6.126;2022-10-17T13:48:47;6.90;;;4.67;;
15624;SDS011;7912;51.376;6.126;2022-10-17T13:51:15;5.17;;;3.93;;
15624;SDS011;7912;51.376;6.126;2022-10-17T13:53:42;5.60;;;4.40;;
15624;SDS011;7912;51.376;6.126;2022-10-17T14:03:04;4.77;;;4.27;;
15624;SDS011;7912;51.376;6.126;2022-10-17T14:05:31;6.37;;;4.47;;
15624;SDS011;7912;51.376;6.126;2022-10-17T14:08:01;8.33;;;4.20;;
15624;SDS011;7912;51.376;6.126;2022-10-17T14:10:38;5.60;;;4.20;;
15624;SDS011;7912;51.376;6.126;2022-10-17T14:13:28;4.77;;;3.80;;
15624;SDS011;7912;51.376;6.126;2022-10-17T14:18:51;5.03;;;4.27;;
15624;SDS011;7912;51.376;6.126;2022-10-17T14:21:22;5.33;;;3.87;;
15624;SDS011;7912;51.376;6.126;2022-10-17T14:26:53;4.60;;;4.17;;
15624;SDS011;7912;51.376;6.126;2022-10-17T14:29:29;5.67;;;4.27;;
15624;SDS011;7912;51.376;6.126;2022-10-17T14:32:16;8.37;;;4.53;;
15624;SDS011;7912;51.376;6.126;2022-10-17T14:34:46;6.10;;;4.60;;
15624;SDS011;7912;51.376;6.126;2022-10-17T14:37:34;6.63;;;4.50;;
15624;SDS011;7912;51.376;6.126;2022-10-17T14:40:15;5.90;;;4.60;;
15624;SDS011;7912;51.376;6.126;2022-10-17T14:42:55;6.30;;;4.40;;
15624;SDS011;7912;51.376;6.126;2022-10-17T14:45:33;6.83;;;5.10;;
15624;SDS011;7912;51.376;6.126;2022-10-17T14:48:11;6.00;;;4.73;;
15624;SDS011;7912;51.376;6.126;2022-10-17T14:53:41;6.40;;;4.40;;
15624;SDS011;7912;51.376;6.126;2022-10-17T14:56:36;6.53;;;5.20;;
15624;SDS011;7912;51.376;6.126;2022-10-17T14:59:14;6.70;;;5.10;;
15624;SDS011;7912;51.376;6.126;2022-10-17T15:02:04;7.27;;;4.63;;
15624;SDS011;7912;51.376;6.126;2022-10-17T15:04:32;5.43;;;4.90;;
15624;SDS011;7912;51.376;6.126;2022-10-17T15:07:00;8.33;;;6.20;;
15624;SDS011;7912;51.376;6.126;2022-10-17T15:09:28;7.47;;;5.70;;
15624;SDS011;7912;51.376;6.126;2022-10-17T15:12:03;5.97;;;5.40;;
15624;SDS011;7912;51.376;6.126;2022-10-17T15:14:42;8.70;;;5.83;;
15624;SDS011;7912;51.376;6.126;2022-10-17T15:17:17;8.73;;;5.60;;
15624;SDS011;7912;51.376;6.126;2022-10-17T15:19:52;7.27;;;5.33;;
15624;SDS011;7912;51.376;6.126;2022-10-17T15:22:20;6.23;;;5.07;;
15624;SDS011;7912;51.376;6.126;2022-10-17T15:24:48;7.17;;;5.83;;
15624;SDS011;7912;51.376;6.126;2022-10-17T15:27:21;7.20;;;6.07;;
15624;SDS011;7912;51.376;6.126;2022-10-17T15:29:51;6.57;;;5.97;;
15624;SDS011;7912;51.376;6.126;2022-10-17T15:32:19;9.53;;;6.27;;
15624;SDS011;7912;51.376;6.126;2022-10-17T15:34:46;8.43;;;6.50;;
15624;SDS011;7912;51.376;6.126;2022-10-17T15:37:23;6.80;;;6.10;;
15624;SDS011;7912;51.376;6.126;2022-10-17T15:42:56;7.93;;;5.93;;
15624;SDS011;7912;51.376;6.126;2022-10-17T15:45:24;7.10;;;6.40;;
15624;SDS011;7912;51.376;6.126;2022-10-17T15:47:55;7.10;;;6.27;;
15624;SDS011;7912;51.376;6.126;2022-10-17T15:50:33;7.23;;;5.87;;
15624;SDS011;7912;51.376;6.126;2022-10-17T15:53:00;6.63;;;5.93;;
15624;SDS011;7912;51.376;6.126;2022-10-17T15:55:28;6.93;;;6.27;;
15624;SDS011;7912;51.376;6.126;2022-10-17T15:57:57;6.63;;;5.93;;
15624;SDS011;7912;51.376;6.126;2022-10-17T16:00:25;7.20;;;5.57;;
15624;SDS011;7912;51.376;6.126;2022-10-17T16:02:54;6.93;;;5.37;;
15624;SDS011;7912;51.376;6.126;2022-10-17T16:05:23;6.60;;;5.90;;
15624;SDS011;7912;51.376;6.126;2022-10-17T16:07:52;6.30;;;5.43;;
15624;SDS011;7912;51.376;6.126;2022-10-17T16:10:21;6.00;;;5.50;;
15624;SDS011;7912;51.376;6.126;2022-10-17T16:12:51;7.77;;;6.23;;
15624;SDS011;7912;51.376;6.126;2022-10-17T16:18:08;6.40;;;5.67;;
15624;SDS011;7912;51.376;6.126;2022-10-17T16:20:35;6.50;;;5.90;;
15624;SDS011;7912;51.376;6.126;2022-10-17T16:23:04;5.90;;;5.40;;
15624;SDS011;7912;51.376;6.126;2022-10-17T16:28:19;6.37;;;5.77;;
15624;SDS011;7912;51.376;6.126;2022-10-17T16:30:47;6.27;;;5.73;;
15624;SDS011;7912;51.376;6.126;2022-10-17T16:33:14;6.53;;;5.93;;
15624;SDS011;7912;51.376;6.126;2022-10-17T16:35:42;6.70;;;5.70;;
15624;SDS011;7912;51.376;6.126;2022-10-17T16:38:13;6.77;;;6.00;;
15624;SDS011;7912;51.376;6.126;2022-10-17T16:40:41;8.70;;;7.80;;
15624;SDS011;7912;51.376;6.126;2022-10-17T16:43:11;8.27;;;6.30;;
15624;SDS011;7912;51.376;6.126;2022-10-17T16:45:39;7.50;;;6.10;;
15624;SDS011;7912;51.376;6.126;2022-10-17T16:48:07;7.60;;;6.30;;
15624;SDS011;7912;51.376;6.126;2022-10-17T16:50:37;9.77;;;6.70;;
15624;SDS011;7912;51.376;6.126;2022-10-17T16:53:05;7.57;;;6.87;;
15624;SDS011;7912;51.376;6.126;2022-10-17T16:55:33;7.43;;;6.73;;
15624;SDS011;7912;51.376;6.126;2022-10-17T16:58:00;7.63;;;7.00;;
15624;SDS011;7912;51.376;6.126;2022-10-17T17:00:28;8.17;;;7.37;;
15624;SDS011;7912;51.376;6.126;2022-10-17T17:02:55;7.50;;;6.53;;
15624;SDS011;7912;51.376;6.126;2022-10-17T17:05:25;8.57;;;6.90;;
15624;SDS011;7912;51.376;6.126;2022-10-17T17:07:53;7.07;;;6.37;;
15624;SDS011;7912;51.376;6.126;2022-10-17T17:10:21;7.83;;;7.00;;
15624;SDS011;7912;51.376;6.126;2022-10-17T17:12:48;7.20;;;6.47;;
15624;SDS011;7912;51.376;6.126;2022-10-17T17:15:16;7.83;;;6.70;;
15624;SDS011;7912;51.376;6.126;2022-10-17T17:17:43;7.07;;;6.33;;
15624;SDS011;7912;51.376;6.126;2022-10-17T17:20:17;7.57;;;6.53;;
15624;SDS011;7912;51.376;6.126;2022-10-17T17:22:44;7.80;;;6.47;;
15624;SDS011;7912;51.376;6.126;2022-10-17T17:25:12;6.90;;;6.30;;
15624;SDS011;7912;51.376;6.126;2022-10-17T17:27:39;7.90;;;7.10;;
15624;SDS011;7912;51.376;6.126;2022-10-17T17:30:07;8.80;;;7.57;;
15624;SDS011;7912;51.376;6.126;2022-10-17T17:32:35;8.23;;;7.13;;
15624;SDS011;7912;51.376;6.126;2022-10-17T17:35:03;7.87;;;6.53;;
15624;SDS011;7912;51.376;6.126;2022-10-17T17:37:31;7.90;;;7.10;;
15624;SDS011;7912;51.376;6.126;2022-10-17T17:39:58;8.97;;;7.17;;
15624;SDS011;7912;51.376;6.126;2022-10-17T17:42:26;7.63;;;6.87;;
15624;SDS011;7912;51.376;6.126;2022-10-17T17:44:53;7.60;;;6.77;;
15624;SDS011;7912;51.376;6.126;2022-10-17T17:47:20;6.53;;;5.93;;
15624;SDS011;7912;51.376;6.126;2022-10-17T17:49:47;7.73;;;6.47;;
15624;SDS011;7912;51.376;6.126;2022-10-17T17:52:15;7.87;;;7.07;;
15624;SDS011;7912;51.376;6.126;2022-10-17T17:54:43;8.27;;;7.10;;
15624;SDS011;7912;51.376;6.126;2022-10-17T17:57:10;7.37;;;6.77;;
15624;SDS011;7912;51.376;6.126;2022-10-17T17:59:38;8.40;;;6.93;;
15624;SDS011;7912;51.376;6.126;2022-10-17T18:02:06;8.07;;;7.20;;
15624;SDS011;7912;51.376;6.126;2022-10-17T18:04:37;8.53;;;6.97;;
15624;SDS011;7912;51.376;6.126;2022-10-17T18:07:04;8.10;;;7.30;;
15624;SDS011;7912;51.376;6.126;2022-10-17T18:09:31;8.33;;;6.77;;
15624;SDS011;7912;51.376;6.126;2022-10-17T18:11:59;8.83;;;6.70;;
15624;SDS011;7912;51.376;6.126;2022-10-17T18:14:26;7.23;;;6.53;;
15624;SDS011;7912;51.376;6.126;2022-10-17T18:16:53;9.30;;;6.93;;
15624;SDS011;7912;51.376;6.126;2022-10-17T18:19:21;7.67;;;6.73;;
15624;SDS011;7912;51.376;6.126;2022-10-17T18:21:49;7.47;;;6.60;;
15624;SDS011;7912;51.376;6.126;2022-10-17T18:24:17;8.23;;;6.27;;
15624;SDS011;7912;51.376;6.126;2022-10-17T18:26:45;7.33;;;6.03;;
15624;SDS011;7912;51.376;6.126;2022-10-17T18:29:13;7.40;;;6.77;;